Time;durP1;ratioP1;P1;durP2;ratioP2;P2;SDS_P1;SDS_P2;PMS_P1;PMS_P2;Temp;Humidity;BMP_temperature;BMP_pressure;BME280_temperature;BME280_humidity;BME280_pressure;Samples;Min_cycle;Max_cycle;Signal;HPM_P1;HPM_P2
2023/01/29 00:01:29;;;;;;;9.30;8.63;;;-0.40;96.90;;;;;;5088488;28;20107;-82
2023/01/29 00:03:54;;;;;;;9.38;8.50;;;-0.40;96.80;;;;;;5071813;28;20073;-81
2023/01/29 00:06:22;;;;;;;7.43;6.82;;;-0.40;96.70;;;;;;5070594;28;20051;-80
2023/01/29 00:08:47;;;;;;;13.40;12.65;;;-0.50;96.00;;;;;;5054835;28;20036;-84
2023/01/29 00:11:13;;;;;;;6.57;6.00;;;-0.60;96.40;;;;;;5071590;28;20480;-85
2023/01/29 00:13:39;;;;;;;12.15;11.27;;;-0.60;96.50;;;;;;5047286;28;20024;-83
2023/01/29 00:16:05;;;;;;;9.68;8.95;;;-0.50;96.80;;;;;;5088430;28;20017;-83
2023/01/29 00:18:30;;;;;;;9.45;8.93;;;-0.50;96.90;;;;;;5068348;28;20054;-85
2023/01/29 00:20:56;;;;;;;10.07;9.40;;;-0.50;96.90;;;;;;5052219;28;20036;-83
2023/01/29 00:23:22;;;;;;;14.13;13.32;;;-0.40;97.00;;;;;;5055231;28;20036;-85
2023/01/29 00:25:48;;;;;;;10.30;9.75;;;-0.40;96.80;;;;;;5070671;28;20040;-83
2023/01/29 00:28:14;;;;;;;8.88;7.93;;;-0.60;96.50;;;;;;5067819;28;20036;-84
2023/01/29 00:30:41;;;;;;;8.25;7.68;;;-0.60;96.30;;;;;;5065772;28;20036;-85
2023/01/29 00:33:10;;;;;;;6.60;6.00;;;-0.50;96.40;;;;;;5087045;28;20487;-83
2023/01/29 00:35:39;;;;;;;10.07;9.48;;;-0.40;96.70;;;;;;5066454;28;20036;-85
2023/01/29 00:38:05;;;;;;;9.23;8.63;;;-0.40;96.40;;;;;;5070297;28;20040;-85
2023/01/29 00:44:56;;;;;;;8.10;7.55;;;-0.50;96.60;;;;;;5086901;28;20024;-86
2023/01/29 00:46:00;;;;;;;6.97;6.50;;;-0.40;96.30;;;;;;5087740;28;20067;-83
2023/01/29 00:48:26;;;;;;;6.30;5.85;;;-0.40;96.40;;;;;;5085933;28;20497;-86
2023/01/29 00:50:51;;;;;;;5.85;5.40;;;-0.50;95.80;;;;;;5073731;28;20039;-84
2023/01/29 00:53:17;;;;;;;5.65;5.20;;;-0.70;95.80;;;;;;5071222;28;20047;-80
2023/01/29 00:55:43;;;;;;;6.13;5.70;;;-0.60;96.20;;;;;;5065761;28;20051;-81
2023/01/29 00:58:09;;;;;;;8.82;8.23;;;-0.50;96.40;;;;;;5056787;28;20040;-83
2023/01/29 01:00:35;;;;;;;7.57;6.97;;;-0.50;96.50;;;;;;5072086;28;20108;-87
2023/01/29 01:03:06;;;;;;;7.10;6.60;;;-0.40;96.50;;;;;;5071876;28;20040;-85
2023/01/29 01:05:32;;;;;;;5.28;4.88;;;-0.40;96.30;;;;;;5054252;28;20029;-84
2023/01/29 01:07:58;;;;;;;7.05;6.55;;;-0.40;96.10;;;;;;5076093;28;20024;-81
2023/01/29 01:10:31;;;;;;;16.58;15.65;;;-0.50;95.80;;;;;;5040001;28;20038;-84
2023/01/29 01:13:03;;;;;;;4.43;4.10;;;-0.70;95.70;;;;;;5100236;28;20034;-82
2023/01/29 01:15:31;;;;;;;8.43;7.68;;;-0.70;95.70;;;;;;5097370;28;20135;-84
2023/01/29 01:17:58;;;;;;;6.40;5.97;;;-0.70;95.90;;;;;;5088303;28;20027;-86
2023/01/29 01:20:26;;;;;;;8.70;8.13;;;-0.60;96.10;;;;;;5068932;28;20440;-82
2023/01/29 01:22:55;;;;;;;6.88;6.28;;;-0.60;95.90;;;;;;5095647;28;20027;-87
2023/01/29 01:25:25;;;;;;;5.80;5.40;;;-0.50;96.00;;;;;;5095458;28;20592;-83
2023/01/29 01:27:55;;;;;;;4.93;4.53;;;-0.50;95.60;;;;;;5086927;28;20086;-83
2023/01/29 01:30:22;;;;;;;5.18;4.78;;;-0.50;95.50;;;;;;5069351;28;20324;-80
2023/01/29 01:32:48;;;;;;;4.70;4.28;;;-0.70;95.40;;;;;;5101050;28;20039;-84
2023/01/29 01:35:14;;;;;;;5.05;4.60;;;-0.70;94.90;;;;;;5098729;28;20028;-84
2023/01/29 01:37:40;;;;;;;5.40;5.00;;;-0.70;95.30;;;;;;5093454;28;20065;-82
2023/01/29 01:40:26;;;;;;;4.88;4.57;;;-0.60;95.50;;;;;;5071282;28;20436;-81
2023/01/29 01:42:54;;;;;;;5.38;4.88;;;-0.60;95.60;;;;;;5094554;28;20028;-82
2023/01/29 01:45:26;;;;;;;3.88;3.63;;;-0.50;95.50;;;;;;5094871;28;20032;-81
2023/01/29 01:47:58;;;;;;;4.05;3.75;;;-0.50;95.30;;;;;;5068800;28;20371;-88
2023/01/29 01:50:43;;;;;;;5.15;4.20;;;-0.50;95.10;;;;;;5053243;28;20513;-84
2023/01/29 01:53:15;;;;;;;4.65;4.25;;;-0.60;95.00;;;;;;5045418;28;20029;-85
2023/01/29 01:55:47;;;;;;;4.35;3.90;;;-0.60;95.30;;;;;;5046786;28;20035;-84
2023/01/29 01:58:23;;;;;;;4.10;3.88;;;-0.60;95.30;;;;;;5067879;28;20030;-86
2023/01/29 02:00:49;;;;;;;4.57;4.10;;;-0.60;95.20;;;;;;5036558;28;20560;-84
2023/01/29 02:11:36;;;;;;;4.05;3.70;;;-1.10;94.60;;;;;;5065014;28;20116;-80
2023/01/29 02:14:02;;;;;;;6.85;4.20;;;-1.00;94.80;;;;;;5052642;28;20028;-84
2023/01/29 02:16:28;;;;;;;3.78;3.47;;;-0.80;94.80;;;;;;5063322;28;20024;-82
2023/01/29 02:18:54;;;;;;;3.97;3.67;;;-0.70;94.90;;;;;;5049160;28;20033;-82
2023/01/29 02:21:44;;;;;;;5.18;4.78;;;-0.80;94.70;;;;;;5062113;28;20028;-83
2023/01/29 02:24:31;;;;;;;3.63;3.33;;;-0.70;94.80;;;;;;5066804;28;20024;-84
2023/01/29 02:27:27;;;;;;;4.95;4.45;;;-0.60;94.90;;;;;;5060663;28;20039;-83
2023/01/29 02:30:02;;;;;;;4.90;4.38;;;-0.70;94.90;;;;;;5068739;28;20035;-84
2023/01/29 02:32:53;;;;;;;3.90;3.60;;;-0.90;94.70;;;;;;5044745;28;20367;-86
2023/01/29 02:35:30;;;;;;;;;;;-0.90;94.40;;;;;;5065987;28;20096;-84
2023/01/29 02:38:10;;;;;;;3.03;2.83;;;-1.00;94.80;;;;;;5063836;28;19916;-80
2023/01/29 02:41:08;;;;;;;3.80;3.50;;;-0.80;94.90;;;;;;5069696;28;20070;-84
2023/01/29 02:43:37;;;;;;;3.65;3.35;;;-0.70;94.80;;;;;;5045303;28;20523;-81
2023/01/29 02:46:20;;;;;;;3.55;3.22;;;-0.70;94.70;;;;;;5068062;28;20071;-82
2023/01/29 02:48:56;;;;;;;3.90;3.60;;;-0.80;94.80;;;;;;5060292;28;20095;-80
2023/01/29 02:51:44;;;;;;;4.43;4.07;;;-0.80;94.70;;;;;;5040901;28;20030;-87
2023/01/29 02:54:20;;;;;;;4.45;4.03;;;-0.80;94.80;;;;;;5049031;28;20035;-81
2023/01/29 02:56:59;;;;;;;4.22;3.85;;;-0.90;94.50;;;;;;5047221;28;20020;-84
2023/01/29 02:59:52;;;;;;;4.20;3.80;;;-1.00;94.20;;;;;;5047730;28;20048;-84
2023/01/29 03:02:25;;;;;;;3.67;3.38;;;-1.00;94.70;;;;;;5042878;28;20037;-83
2023/01/29 03:04:58;;;;;;;4.25;3.85;;;-0.90;94.60;;;;;;5065021;28;20028;-83
2023/01/29 03:07:41;;;;;;;4.32;3.90;;;-1.00;94.80;;;;;;5049044;28;20032;-83
2023/01/29 03:10:17;;;;;;;4.50;3.75;;;-0.90;94.80;;;;;;5065516;28;20033;-86
2023/01/29 03:12:45;;;;;;;4.93;4.53;;;-0.90;94.60;;;;;;5065962;28;20075;-85
2023/01/29 03:15:23;;;;;;;3.88;3.58;;;-1.00;94.50;;;;;;5064659;28;20376;-81
2023/01/29 03:17:54;;;;;;;4.63;4.22;;;-1.00;94.30;;;;;;5051436;28;20371;-85
2023/01/29 03:20:24;;;;;;;;;;;-1.00;94.00;;;;;;5068508;28;20024;-83
2023/01/29 03:22:54;;;;;;;3.17;2.95;;;-1.10;94.20;;;;;;5063734;28;19909;-84
2023/01/29 03:33:51;;;;;;;5.13;3.92;;;-0.70;94.40;;;;;;5062722;28;20094;-87
2023/01/29 03:36:44;;;;;;;4.15;3.75;;;-0.70;94.10;;;;;;5065711;28;20028;-85
2023/01/29 03:39:11;;;;;;;2.83;2.63;;;-0.80;93.80;;;;;;5065742;28;20047;-84
2023/01/29 03:41:42;;;;;;;3.55;3.25;;;-0.90;93.50;;;;;;5048287;28;20058;-85
2023/01/29 03:44:42;;;;;;;3.90;3.60;;;-1.00;93.70;;;;;;5049196;28;20063;-85
2023/01/29 03:47:18;;;;;;;4.07;3.70;;;-0.90;94.00;;;;;;5064849;28;20036;-83
2023/01/29 03:50:04;;;;;;;3.80;3.40;;;-0.90;94.40;;;;;;5071220;28;20051;-87
2023/01/29 03:52:51;;;;;;;4.32;3.85;;;-0.80;94.50;;;;;;5050550;28;20514;-86
2023/01/29 03:55:27;;;;;;;3.85;3.55;;;-0.70;94.40;;;;;;5052738;28;20441;-86
2023/01/29 03:57:56;;;;;;;3.80;3.50;;;-0.60;94.30;;;;;;5069971;28;20372;-85
2023/01/29 04:00:27;;;;;;;4.07;3.72;;;-0.60;94.20;;;;;;5047680;28;20025;-83
2023/01/29 04:03:14;;;;;;;3.83;3.53;;;-0.70;93.60;;;;;;5069164;28;20108;-84
2023/01/29 04:06:04;;;;;;;4.18;3.78;;;-0.80;93.40;;;;;;5070430;28;20477;-83
2023/01/29 04:08:35;;;;;;;3.90;3.60;;;-0.90;93.60;;;;;;5065495;28;20123;-85
2023/01/29 04:11:05;;;;;;;4.03;3.72;;;-0.80;94.20;;;;;;5067529;28;20516;-86
2023/01/29 04:13:32;;;;;;;;;;;-0.60;94.10;;;;;;5072004;28;20021;-82
2023/01/29 04:16:00;;;;;;;3.83;3.47;;;-0.60;93.80;;;;;;5066445;28;20362;-85
2023/01/29 04:18:26;;;;;;;3.63;3.33;;;-0.70;94.00;;;;;;5031785;28;20036;-86
2023/01/29 04:20:52;;;;;;;4.25;3.85;;;-0.90;94.00;;;;;;5071975;28;20028;-86
2023/01/29 04:23:23;;;;;;;4.20;3.80;;;-0.70;94.10;;;;;;5071468;28;20033;-86
2023/01/29 04:26:18;;;;;;;4.43;4.03;;;-0.80;93.80;;;;;;5069081;28;20029;-83
2023/01/29 04:29:25;;;;;;;4.25;3.88;;;-0.80;94.00;;;;;;5042529;28;20645;-86
2023/01/29 04:32:02;;;;;;;4.28;3.88;;;-0.70;94.30;;;;;;5012008;28;20034;-84
2023/01/29 04:34:53;;;;;;;4.80;4.40;;;-0.70;94.20;;;;;;5068321;28;20096;-83
2023/01/29 04:37:19;;;;;;;;;;;-0.80;94.40;;;;;;5046500;28;20083;-90
2023/01/29 04:40:06;;;;;;;3.35;3.03;;;-0.80;94.50;;;;;;5070750;28;19943;-82
2023/01/29 04:43:05;;;;;;;3.90;3.60;;;-0.70;94.60;;;;;;5071643;28;20020;-89
2023/01/29 04:45:45;;;;;;;3.47;3.28;;;-0.80;94.20;;;;;;5067172;28;20054;-85
2023/01/29 04:48:35;;;;;;;5.10;4.23;;;-0.80;94.00;;;;;;5052985;28;20115;-86
2023/01/29 04:51:37;;;;;;;4.43;3.55;;;-0.90;94.10;;;;;;5086182;28;20020;-86
2023/01/29 04:54:19;;;;;;;4.47;3.95;;;-0.90;94.50;;;;;;5079514;28;20096;-90
2023/01/29 04:57:18;;;;;;;4.63;4.22;;;-1.00;94.60;;;;;;5082703;28;20050;-91
2023/01/29 05:00:01;;;;;;;3.78;3.47;;;-1.10;94.50;;;;;;5058471;28;20051;-92
2023/01/29 05:02:28;;;;;;;5.25;4.55;;;-1.10;95.40;;;;;;5090701;28;20039;-90
2023/01/29 05:04:57;;;;;;;5.38;4.10;;;-0.80;95.20;;;;;;5080980;28;20043;-88
2023/01/29 05:07:24;;;;;;;5.93;4.07;;;-0.80;95.00;;;;;;5082928;28;20042;-89
2023/01/29 05:09:51;;;;;;;4.68;4.28;;;-0.70;94.90;;;;;;5075978;28;20161;-90
2023/01/29 05:12:17;;;;;;;4.03;3.72;;;-0.80;94.70;;;;;;5091981;28;20102;-90
2023/01/29 05:14:45;;;;;;;5.40;4.15;;;-0.80;94.80;;;;;;5063432;28;20201;-91
2023/01/29 05:17:26;;;;;;;3.85;3.55;;;-0.80;94.60;;;;;;5090243;28;20489;-88
2023/01/29 05:20:03;;;;;;;4.80;4.05;;;-0.90;94.40;;;;;;5086654;28;20055;-91
2023/01/29 05:22:40;;;;;;;4.47;4.05;;;-0.90;94.40;;;;;;5080028;28;20118;-87
2023/01/29 05:25:22;;;;;;;3.88;3.58;;;-0.90;94.20;;;;;;5069232;28;20114;-90
2023/01/29 05:31:21;;;;;;;4.00;3.70;;;-0.80;94.50;;;;;;5067924;28;20444;-88
2023/01/29 05:34:07;;;;;;;4.60;4.10;;;-0.90;94.70;;;;;;5071512;28;20036;-88
2023/01/29 05:36:33;;;;;;;4.35;3.65;;;-0.80;94.80;;;;;;5072756;28;20028;-88
2023/01/29 05:38:59;;;;;;;4.55;4.15;;;-0.80;94.60;;;;;;5075122;28;20024;-90
2023/01/29 05:41:25;;;;;;;5.38;4.88;;;-0.80;94.30;;;;;;5088656;28;20525;-91
2023/01/29 05:43:55;;;;;;;5.18;3.95;;;-1.10;94.30;;;;;;5077311;28;20107;-91
2023/01/29 05:46:22;;;;;;;4.57;4.18;;;-1.10;94.10;;;;;;5076600;28;20036;-91
2023/01/29 05:48:50;;;;;;;4.63;4.22;;;-0.90;94.50;;;;;;5093808;28;20044;-89
2023/01/29 05:51:16;;;;;;;4.63;4.22;;;-0.80;94.40;;;;;;5102703;28;20031;-90
2023/01/29 05:53:43;;;;;;;3.50;3.20;;;-0.80;94.30;;;;;;5093448;28;20383;-89
2023/01/29 05:56:08;;;;;;;41.75;39.17;;;-0.70;94.30;;;;;;5067443;28;20032;-89
2023/01/29 05:58:39;;;;;;;4.38;3.85;;;-1.00;94.00;;;;;;5057549;28;20034;-87
2023/01/29 06:01:23;;;;;;;4.00;3.60;;;-0.90;94.10;;;;;;5099367;28;20031;-90
2023/01/29 06:03:49;;;;;;;4.53;3.80;;;-1.10;93.40;;;;;;5097232;28;20049;-86
2023/01/29 06:06:15;;;;;;;4.53;3.92;;;-1.20;93.80;;;;;;5094677;28;20107;-89
2023/01/29 06:09:03;;;;;;;4.00;3.70;;;-1.10;94.10;;;;;;5062021;28;20372;-90
2023/01/29 06:11:29;;;;;;;3.78;3.47;;;-0.90;94.20;;;;;;5076132;28;20085;-90
2023/01/29 06:13:55;;;;;;;4.70;4.30;;;-0.90;93.90;;;;;;5072765;28;20028;-91
2023/01/29 06:16:22;;;;;;;4.32;3.95;;;-0.70;94.30;;;;;;5095362;28;20019;-88
2023/01/29 06:18:48;;;;;;;4.32;3.92;;;-0.80;94.00;;;;;;5075121;28;20040;-89
2023/01/29 06:21:14;;;;;;;4.78;4.38;;;-0.80;93.90;;;;;;5101061;28;20073;-89
2023/01/29 06:23:40;;;;;;;4.78;4.35;;;-0.90;93.70;;;;;;5072818;28;20453;-90
2023/01/29 06:26:12;;;;;;;5.18;4.63;;;-1.10;93.90;;;;;;5075298;28;20043;-90
2023/01/29 06:28:39;;;;;;;4.20;3.90;;;-1.00;93.80;;;;;;5070290;28;20506;-90
2023/01/29 06:31:11;;;;;;;4.47;4.05;;;-0.90;93.80;;;;;;5073263;28;20440;-91
2023/01/29 06:33:52;;;;;;;4.13;3.72;;;-0.90;94.00;;;;;;5095446;28;20028;-89
2023/01/29 06:36:18;;;;;;;;;;;-0.70;93.70;;;;;;5071674;28;20023;-89
2023/01/29 06:38:43;;;;;;;2.72;2.53;;;-0.80;93.70;;;;;;5073574;28;19923;-90
2023/01/29 06:41:11;;;;;;;4.43;4.03;;;-0.80;93.90;;;;;;5053557;28;20480;-91
2023/01/29 06:44:11;;;;;;;4.18;3.88;;;-0.90;93.80;;;;;;5075449;28;20055;-88
2023/01/29 06:46:45;;;;;;;3.75;3.42;;;-1.00;93.20;;;;;;5096349;28;20108;-90
2023/01/29 06:49:11;;;;;;;5.15;4.18;;;-1.20;93.20;;;;;;5070315;28;20509;-90
2023/01/29 06:51:38;;;;;;;4.35;3.95;;;-1.10;94.00;;;;;;5072136;28;20038;-91
2023/01/29 06:54:09;;;;;;;4.57;4.10;;;-1.00;93.90;;;;;;5090885;28;20505;-90
2023/01/29 06:56:35;;;;;;;5.93;4.22;;;-1.00;93.90;;;;;;5092846;28;20036;-89
2023/01/29 06:59:02;;;;;;;4.45;4.05;;;-0.90;93.80;;;;;;5094562;28;20017;-90
2023/01/29 07:01:27;;;;;;;5.63;3.65;;;-0.90;93.60;;;;;;5067369;28;20111;-90
2023/01/29 07:03:53;;;;;;;4.90;4.38;;;-0.90;93.50;;;;;;5090284;28;20044;-91
2023/01/29 07:06:19;;;;;;;4.25;3.85;;;-0.90;93.30;;;;;;5093873;28;20073;-84
2023/01/29 07:08:45;;;;;;;4.10;3.80;;;-1.10;93.40;;;;;;5095905;28;20132;-80
2023/01/29 07:11:11;;;;;;;4.70;4.30;;;-1.10;93.30;;;;;;5099122;28;20553;-84
2023/01/29 07:13:38;;;;;;;4.78;4.28;;;-1.00;93.40;;;;;;5101733;28;20036;-88
2023/01/29 07:16:05;;;;;;;4.13;3.58;;;-1.00;93.50;;;;;;5081438;28;20052;-82
2023/01/29 07:18:31;;;;;;;4.72;4.32;;;-0.80;93.70;;;;;;5106398;28;20074;-83
2023/01/29 07:20:58;;;;;;;4.18;3.88;;;-0.70;93.50;;;;;;5095649;28;20434;-88
2023/01/29 07:23:24;;;;;;;4.82;4.43;;;-0.80;93.00;;;;;;5093201;28;20116;-89
2023/01/29 07:25:50;;;;;;;5.53;4.20;;;-0.70;93.20;;;;;;5097812;28;20028;-88
2023/01/29 07:28:17;;;;;;;5.78;3.70;;;-0.80;92.90;;;;;;5093773;28;20410;-82
2023/01/29 07:30:42;;;;;;;5.28;3.78;;;-0.90;92.70;;;;;;5088165;28;20123;-85
2023/01/29 07:33:09;;;;;;;4.28;3.85;;;-0.90;92.70;;;;;;5095830;28;20177;-85
2023/01/29 07:35:40;;;;;;;4.63;4.03;;;-0.70;93.00;;;;;;5099696;28;20094;-82
2023/01/29 07:38:09;;;;;;;4.20;3.45;;;-0.60;92.80;;;;;;5097355;28;20027;-84
2023/01/29 07:40:35;;;;;;;3.75;3.45;;;-0.40;92.60;;;;;;5074132;28;20035;-85
2023/01/29 07:43:03;;;;;;;4.40;4.00;;;-0.60;92.30;;;;;;5098384;28;20031;-86
2023/01/29 07:45:30;;;;;;;4.90;3.58;;;-0.80;92.70;;;;;;5099408;28;20148;-81
2023/01/29 07:47:56;;;;;;;3.47;3.17;;;-0.60;92.40;;;;;;5103873;28;20069;-88
2023/01/29 07:50:25;;;;;;;4.85;3.45;;;-0.80;91.90;;;;;;5094203;28;20048;-85
2023/01/29 07:52:53;;;;;;;3.65;3.35;;;-0.80;92.10;;;;;;5089360;28;20070;-83
2023/01/29 07:55:19;;;;;;;3.22;2.95;;;-1.00;92.30;;;;;;5091896;28;20059;-81
2023/01/29 07:57:45;;;;;;;4.38;3.45;;;-0.70;92.20;;;;;;5090777;28;20028;-80
2023/01/29 08:00:13;;;;;;;4.45;3.17;;;-0.50;92.00;;;;;;5088309;28;20047;-80
2023/01/29 08:02:39;;;;;;;3.88;3.58;;;-0.50;91.60;;;;;;5087196;28;20133;-81
2023/01/29 08:05:05;;;;;;;3.65;3.35;;;-0.30;92.00;;;;;;5088801;28;20436;-82
2023/01/29 08:07:31;;;;;;;4.38;3.80;;;-0.20;91.80;;;;;;5090262;28;20039;-82
2023/01/29 08:09:57;;;;;;;4.15;3.58;;;-0.10;91.80;;;;;;5093174;28;20028;-86
2023/01/29 08:12:22;;;;;;;3.22;2.95;;;0.00;90.90;;;;;;5075909;28;20047;-81
2023/01/29 08:14:49;;;;;;;3.88;3.58;;;0.00;91.00;;;;;;5066950;28;20028;-83
2023/01/29 08:17:14;;;;;;;3.38;3.08;;;0.00;91.10;;;;;;5089897;28;20017;-82
2023/01/29 08:19:40;;;;;;;3.22;2.92;;;0.00;90.40;;;;;;5051860;28;20038;-83
2023/01/29 08:22:06;;;;;;;3.92;2.97;;;-0.10;90.40;;;;;;5089640;28;20058;-82
2023/01/29 08:24:33;;;;;;;3.70;3.40;;;-0.30;89.20;;;;;;5079162;28;20056;-80
2023/01/29 08:26:58;;;;;;;3.67;3.38;;;-0.30;90.50;;;;;;5076817;28;20031;-80
2023/01/29 08:29:24;;;;;;;4.53;3.50;;;-0.30;90.40;;;;;;5072726;28;20272;-87
2023/01/29 08:31:50;;;;;;;3.30;3.00;;;-0.30;89.90;;;;;;5074016;28;20503;-81
2023/01/29 08:34:16;;;;;;;4.38;3.30;;;-0.20;88.80;;;;;;5087864;28;20032;-83
2023/01/29 08:36:41;;;;;;;4.07;3.13;;;-0.20;89.40;;;;;;5084891;28;20024;-80
2023/01/29 08:39:07;;;;;;;3.45;3.15;;;-0.20;89.00;;;;;;5067073;28;20489;-88
2023/01/29 08:41:33;;;;;;;4.50;3.08;;;-0.10;88.90;;;;;;5084974;28;20502;-85
2023/01/29 08:44:03;;;;;;;4.28;3.88;;;-0.10;88.20;;;;;;5068129;28;20032;-85
2023/01/29 08:46:29;;;;;;;4.50;3.70;;;0.10;89.50;;;;;;5084860;28;20394;-85
2023/01/29 08:48:54;;;;;;;4.68;3.63;;;0.20;89.20;;;;;;5087392;28;20072;-85
2023/01/29 08:51:21;;;;;;;3.83;3.45;;;0.30;89.80;;;;;;5085449;28;20075;-86
2023/01/29 08:53:46;;;;;;;4.30;3.25;;;0.10;90.00;;;;;;5069347;28;20028;-82
2023/01/29 08:56:12;;;;;;;3.60;3.30;;;0.10;88.60;;;;;;5077731;28;20134;-86
2023/01/29 08:58:38;;;;;;;5.47;3.63;;;0.00;88.20;;;;;;5074164;28;20032;-84
2023/01/29 09:01:12;;;;;;;3.17;2.72;;;-0.10;88.20;;;;;;5073086;28;20053;-81
2023/01/29 09:03:39;;;;;;;4.35;3.00;;;-0.30;87.80;;;;;;5083022;28;20114;-83
2023/01/29 09:06:07;;;;;;;4.30;3.08;;;-0.30;88.70;;;;;;5055347;28;20028;-82
2023/01/29 09:08:33;;;;;;;3.95;3.30;;;0.00;89.50;;;;;;5075159;28;20036;-85
2023/01/29 09:10:59;;;;;;;3.75;3.45;;;0.00;89.20;;;;;;5081830;28;20043;-80
2023/01/29 09:13:25;;;;;;;4.43;3.50;;;0.10;88.90;;;;;;5072793;28;20028;-84
2023/01/29 09:15:51;;;;;;;3.58;3.28;;;0.10;89.40;;;;;;5084691;28;20039;-87
2023/01/29 09:18:16;;;;;;;3.58;3.28;;;-0.30;89.10;;;;;;5068558;28;20036;-85
2023/01/29 09:20:42;;;;;;;4.38;3.10;;;-0.30;89.10;;;;;;5066783;28;20794;-87
2023/01/29 09:23:09;;;;;;;3.70;3.22;;;-0.20;87.80;;;;;;5087456;28;20491;-85
2023/01/29 09:25:35;;;;;;;4.60;3.15;;;-0.30;89.10;;;;;;5082840;28;20028;-81
2023/01/29 09:28:02;;;;;;;2.70;2.50;;;0.00;88.10;;;;;;5072107;28;20043;-84
2023/01/29 09:30:28;;;;;;;3.42;2.80;;;0.00;87.60;;;;;;5095675;28;20153;-85
2023/01/29 09:32:53;;;;;;;3.05;2.75;;;0.10;87.10;;;;;;5071201;28;20556;-86
2023/01/29 09:35:20;;;;;;;3.50;3.20;;;0.20;88.00;;;;;;5071995;28;20075;-81
2023/01/29 09:37:47;;;;;;;2.78;2.58;;;0.00;88.20;;;;;;5069857;28;20032;-81
2023/01/29 09:40:46;;;;;;;3.50;3.15;;;0.00;87.60;;;;;;5070450;28;20455;-85
2023/01/29 09:43:24;;;;;;;3.38;3.08;;;-0.20;88.20;;;;;;5081428;28;20044;-84
2023/01/29 09:45:57;;;;;;;2.78;2.58;;;0.00;89.20;;;;;;5086680;28;20059;-83
2023/01/29 09:48:29;;;;;;;3.40;3.10;;;0.20;88.80;;;;;;5066362;28;20047;-84
2023/01/29 09:50:57;;;;;;;3.67;3.38;;;0.40;88.20;;;;;;5082637;28;20443;-88
2023/01/29 09:53:42;;;;;;;3.45;2.88;;;0.20;87.90;;;;;;5071845;28;20462;-87
2023/01/29 09:56:18;;;;;;;3.38;3.10;;;0.50;87.20;;;;;;5084461;28;20038;-86
2023/01/29 09:58:43;;;;;;;3.22;2.90;;;0.50;86.40;;;;;;5088739;28;20028;-86
2023/01/29 10:01:17;;;;;;;2.97;2.58;;;0.40;86.20;;;;;;5066397;28;20040;-86
2023/01/29 10:04:00;;;;;;;3.65;3.20;;;0.30;86.70;;;;;;5082216;28;20086;-86
2023/01/29 10:07:03;;;;;;;2.88;2.67;;;0.30;86.70;;;;;;5081157;28;20028;-84
2023/01/29 10:10:14;;;;;;;3.90;2.55;;;0.50;87.00;;;;;;5084558;28;20044;-87
2023/01/29 10:13:04;;;;;;;2.58;2.38;;;0.40;86.70;;;;;;5065903;28;20024;-82
2023/01/29 10:15:32;;;;;;;3.50;2.80;;;0.60;85.60;;;;;;5060939;28;20035;-79
2023/01/29 10:18:04;;;;;;;3.47;3.17;;;0.70;86.00;;;;;;5085304;28;20043;-84
2023/01/29 10:20:50;;;;;;;2.80;2.60;;;0.60;86.00;;;;;;5078437;28;20099;-83
2023/01/29 10:23:27;;;;;;;2.63;2.42;;;0.70;85.00;;;;;;5087258;28;20023;-80
2023/01/29 10:25:54;;;;;;;2.92;2.53;;;0.40;85.50;;;;;;5060747;28;20402;-83
2023/01/29 10:28:32;;;;;;;3.30;3.00;;;0.30;85.50;;;;;;5085777;28;20108;-84
2023/01/29 10:31:07;;;;;;;2.88;2.58;;;0.20;87.80;;;;;;5086171;28;20034;-82
2023/01/29 10:33:41;;;;;;;3.55;3.10;;;0.50;88.30;;;;;;5072163;28;20031;-85
2023/01/29 10:36:15;;;;;;;3.33;2.97;;;0.70;87.20;;;;;;5068517;28;20074;-81
2023/01/29 10:38:51;;;;;;;5.75;3.20;;;0.90;87.00;;;;;;5086287;28;20016;-84
2023/01/29 10:42:09;;;;;;;3.92;3.45;;;1.00;85.10;;;;;;5087315;28;20039;-84
2023/01/29 10:44:43;;;;;;;3.47;3.13;;;0.80;84.50;;;;;;5055224;28;20115;-85
2023/01/29 10:47:31;;;;;;;3.20;2.90;;;0.80;84.00;;;;;;5082996;28;20167;-82
2023/01/29 10:50:11;;;;;;;3.53;3.22;;;0.80;84.20;;;;;;5083654;28;20048;-83
2023/01/29 10:52:58;;;;;;;3.47;3.17;;;1.10;83.70;;;;;;5101361;28;20031;-83
2023/01/29 10:55:51;;;;;;;4.53;4.00;;;1.00;83.30;;;;;;5086439;28;20145;-80
2023/01/29 10:58:40;;;;;;;3.20;2.88;;;0.70;83.70;;;;;;5097577;28;20099;-84
2023/01/29 11:01:08;;;;;;;3.03;2.75;;;0.70;85.50;;;;;;5081715;28;20023;-82
2023/01/29 11:03:34;;;;;;;3.22;2.92;;;0.80;85.20;;;;;;5065391;28;20032;-85
2023/01/29 11:06:11;;;;;;;2.33;2.20;;;1.10;85.80;;;;;;5089643;28;20520;-85
2023/01/29 11:09:18;;;;;;;4.30;3.00;;;1.10;85.50;;;;;;5061637;28;20024;-83
2023/01/29 11:11:49;;;;;;;2.75;2.55;;;0.90;84.80;;;;;;5094803;28;20511;-82
2023/01/29 11:14:32;;;;;;;4.00;2.75;;;1.00;83.20;;;;;;5071535;28;20071;-83
2023/01/29 11:16:58;;;;;;;3.60;2.83;;;0.90;83.30;;;;;;5087310;28;20508;-78
2023/01/29 11:19:40;;;;;;;3.22;2.92;;;1.00;82.80;;;;;;5097820;28;20155;-84
2023/01/29 11:22:16;;;;;;;3.22;2.92;;;0.80;82.70;;;;;;5076746;28;20047;-85
2023/01/29 11:24:42;;;;;;;4.60;3.50;;;0.80;83.90;;;;;;5070923;28;20505;-80
2023/01/29 11:27:28;;;;;;;4.97;3.25;;;0.80;85.70;;;;;;5053423;28;20064;-79
2023/01/29 11:29:54;;;;;;;3.08;2.78;;;0.90;84.30;;;;;;5086747;28;20469;-85
2023/01/29 11:32:24;;;;;;;3.20;2.90;;;0.60;85.00;;;;;;5089202;28;20036;-85
2023/01/29 11:35:18;;;;;;;2.67;2.47;;;0.80;84.50;;;;;;5052841;28;20119;-83
2023/01/29 11:37:45;;;;;;;2.85;2.65;;;1.00;84.30;;;;;;5089598;28;20275;-81
2023/01/29 11:40:37;;;;;;;2.90;2.70;;;1.20;82.90;;;;;;5092119;28;20021;-84
2023/01/29 11:43:26;;;;;;;2.90;2.63;;;0.90;83.40;;;;;;5063362;28;20036;-80
2023/01/29 11:46:04;;;;;;;2.58;2.38;;;1.00;82.80;;;;;;5063317;28;20529;-83
2023/01/29 11:48:41;;;;;;;3.08;2.88;;;1.30;81.50;;;;;;5061245;28;20075;-81
2023/01/29 11:51:09;;;;;;;3.65;3.08;;;1.30;82.60;;;;;;5066623;28;20040;-85
2023/01/29 11:53:39;;;;;;;2.65;2.45;;;1.20;81.60;;;;;;5051106;28;20032;-81
2023/01/29 11:56:17;;;;;;;3.20;2.90;;;1.20;82.40;;;;;;5045688;28;20052;-81
2023/01/29 11:58:44;;;;;;;3.42;2.80;;;0.80;83.40;;;;;;5043527;28;20028;-84
2023/01/29 12:01:10;;;;;;;3.15;2.85;;;0.70;84.10;;;;;;5048775;28;20032;-84
2023/01/29 12:03:44;;;;;;;3.38;3.08;;;0.80;83.60;;;;;;5048106;28;20398;-82
2023/01/29 12:06:27;;;;;;;3.13;2.83;;;0.80;82.40;;;;;;5067998;28;20116;-80
2023/01/29 12:08:58;;;;;;;4.00;2.78;;;0.70;82.60;;;;;;5070189;28;20044;-83
2023/01/29 12:11:29;;;;;;;2.85;2.63;;;0.80;83.10;;;;;;5070831;28;20115;-87
2023/01/29 12:13:59;;;;;;;2.55;2.35;;;0.70;83.60;;;;;;5047122;28;20133;-82
2023/01/29 12:16:55;;;;;;;3.10;2.80;;;0.80;83.40;;;;;;5050593;28;20033;-85
2023/01/29 12:19:26;;;;;;;3.40;2.65;;;0.80;82.40;;;;;;5076144;28;20028;-78
2023/01/29 12:21:58;;;;;;;3.40;2.95;;;0.70;82.90;;;;;;5065013;28;20029;-81
2023/01/29 12:24:41;;;;;;;3.35;2.92;;;0.70;83.30;;;;;;5057326;28;20402;-86
2023/01/29 12:27:30;;;;;;;3.00;2.70;;;0.60;83.00;;;;;;5043563;28;20562;-90
2023/01/29 12:30:16;;;;;;;4.93;3.58;;;0.60;82.70;;;;;;5058216;28;20033;-88
2023/01/29 12:32:54;;;;;;;3.88;2.90;;;0.50;84.50;;;;;;5057360;28;20075;-87
2023/01/29 12:35:42;;;;;;;3.97;3.35;;;0.70;84.80;;;;;;5058429;28;20028;-84
2023/01/29 12:38:18;;;;;;;5.10;3.13;;;0.70;83.60;;;;;;5058198;28;20048;-85
2023/01/29 12:40:56;;;;;;;3.60;3.30;;;0.60;83.50;;;;;;5052299;28;20036;-87
2023/01/29 12:43:36;;;;;;;4.20;3.40;;;0.40;84.40;;;;;;5061937;28;20039;-82
2023/01/29 12:46:12;;;;;;;3.72;3.15;;;0.40;85.10;;;;;;5061814;28;20041;-89
2023/01/29 12:48:42;;;;;;;3.47;3.15;;;0.50;84.80;;;;;;5062862;28;20029;-80
2023/01/29 12:51:15;;;;;;;3.38;3.08;;;0.60;84.70;;;;;;5086249;28;20055;-80
2023/01/29 12:53:48;;;;;;;3.10;2.80;;;0.60;85.00;;;;;;5079649;28;20047;-82
2023/01/29 12:56:29;;;;;;;3.03;2.72;;;0.60;84.30;;;;;;5091719;28;20048;-79
2023/01/29 12:59:00;;;;;;;3.47;3.17;;;0.60;84.50;;;;;;5091356;28;20032;-82
2023/01/29 13:01:35;;;;;;;3.92;3.53;;;0.60;84.70;;;;;;5080480;28;20471;-80
2023/01/29 13:04:25;;;;;;;3.25;2.95;;;0.60;84.20;;;;;;5083998;28;20143;-82
2023/01/29 13:06:58;;;;;;;3.63;3.33;;;0.60;84.20;;;;;;5091074;28;20024;-82
2023/01/29 13:09:31;;;;;;;3.38;3.08;;;0.50;83.80;;;;;;5090514;28;20032;-85
2023/01/29 13:12:10;;;;;;;3.08;2.78;;;0.50;85.70;;;;;;5077859;28;20521;-83
2023/01/29 13:14:55;;;;;;;3.45;3.15;;;0.50;83.80;;;;;;5078514;28;20028;-79
2023/01/29 13:17:34;;;;;;;3.92;3.47;;;0.40;84.30;;;;;;5084846;28;20032;-83
2023/01/29 13:20:18;;;;;;;4.90;3.70;;;0.30;84.90;;;;;;5090019;28;20030;-82
2023/01/29 13:22:47;;;;;;;4.18;3.50;;;0.50;84.70;;;;;;5069723;28;20032;-86
2023/01/29 13:25:18;;;;;;;3.47;3.17;;;0.60;85.10;;;;;;5084766;28;20028;-82
2023/01/29 13:27:46;;;;;;;3.65;3.30;;;0.50;84.70;;;;;;5064695;28;20021;-79
2023/01/29 13:30:28;;;;;;;4.50;3.40;;;0.70;84.90;;;;;;5077502;28;20079;-82
2023/01/29 13:33:07;;;;;;;3.55;3.25;;;0.60;83.80;;;;;;5086480;28;20114;-86
2023/01/29 13:35:36;;;;;;;4.45;3.30;;;0.60;84.50;;;;;;5075082;28;20031;-85
2023/01/29 13:38:02;;;;;;;3.15;2.95;;;0.60;85.50;;;;;;5083511;28;20024;-82
2023/01/29 13:40:33;;;;;;;4.05;3.28;;;0.60;83.60;;;;;;5051109;28;20028;-82
2023/01/29 13:43:00;;;;;;;3.55;3.13;;;0.60;84.20;;;;;;5071835;28;20161;-80
2023/01/29 13:45:43;;;;;;;5.25;3.53;;;0.60;84.50;;;;;;5082547;28;20035;-78